Time;durP1;ratioP1;P1;durP2;ratioP2;P2;SDS_P1;SDS_P2;PMS_P1;PMS_P2;Temp;Humidity;BMP_temperature;BMP_pressure;BME280_temperature;BME280_humidity;BME280_pressure;Samples;Min_cycle;Max_cycle;Signal;HPM_P1;HPM_P2
2023/05/22 00:03:29;;;;;;;10.55;9.35;;;;;;;;;;8300961;28;20034;-60
2023/05/22 00:07:29;;;;;;;10.85;9.75;;;;;;;;;;8298265;28;20108;-60
2023/05/22 00:11:29;;;;;;;11.27;10.00;;;;;;;;;;8302872;28;20037;-61
2023/05/22 00:15:30;;;;;;;11.02;9.50;;;;;;;;;;8301433;28;20284;-61
2023/05/22 00:19:30;;;;;;;11.13;9.68;;;;;;;;;;8299875;28;20684;-61
2023/05/22 00:23:30;;;;;;;11.40;10.20;;;;;;;;;;8300403;28;20021;-61
2023/05/22 00:27:30;;;;;;;9.88;8.93;;;;;;;;;;8298868;28;21273;-60
2023/05/22 00:31:31;;;;;;;10.20;9.10;;;;;;;;;;8301970;28;21607;-60
2023/05/22 00:35:31;;;;;;;14.95;9.48;;;;;;;;;;8301347;28;20031;-61
2023/05/22 00:39:32;;;;;;;10.45;9.45;;;;;;;;;;8297005;28;20049;-60
2023/05/22 00:43:32;;;;;;;11.85;9.57;;;;;;;;;;8299583;28;20122;-60
2023/05/22 00:47:33;;;;;;;11.57;9.18;;;;;;;;;;8299462;28;20137;-60
2023/05/22 00:51:33;;;;;;;12.27;9.50;;;;;;;;;;8302002;28;20036;-60
2023/05/22 00:55:33;;;;;;;10.82;9.65;;;;;;;;;;8298584;28;20033;-61
2023/05/22 00:59:34;;;;;;;11.27;9.80;;;;;;;;;;8298260;28;20021;-60
2023/05/22 01:03:36;;;;;;;11.48;10.05;;;;;;;;;;8299986;28;20071;-60
2023/05/22 01:07:36;;;;;;;12.27;9.93;;;;;;;;;;8299493;28;20025;-60
2023/05/22 01:11:40;;;;;;;12.45;9.75;;;;;;;;;;8301093;28;20057;-60
2023/05/22 01:16:10;;;;;;;12.27;10.18;;;;;;;;;;8299162;28;20038;-60
2023/05/22 01:20:19;;;;;;;10.88;9.57;;;;;;;;;;8291916;28;20064;-61
2023/05/22 01:24:40;;;;;;;12.35;10.35;;;;;;;;;;8299834;28;20135;-60
2023/05/22 01:28:50;;;;;;;13.35;9.65;;;;;;;;;;8296465;28;20029;-60
2023/05/22 01:32:55;;;;;;;11.50;10.20;;;;;;;;;;8294991;28;20160;-61
2023/05/22 01:36:56;;;;;;;11.10;10.00;;;;;;;;;;8295370;28;20067;-60
2023/05/22 01:40:57;;;;;;;11.57;9.95;;;;;;;;;;8300022;28;20017;-60
2023/05/22 01:44:57;;;;;;;11.77;9.73;;;;;;;;;;8299610;28;20031;-61
2023/05/22 01:48:57;;;;;;;12.40;10.23;;;;;;;;;;8295878;28;20474;-60
2023/05/22 01:53:02;;;;;;;14.23;10.27;;;;;;;;;;8299566;28;20031;-60
2023/05/22 01:57:15;;;;;;;13.35;10.10;;;;;;;;;;8301743;28;20107;-60
2023/05/22 02:01:16;;;;;;;11.18;10.02;;;;;;;;;;8307164;28;20025;-60
2023/05/22 02:05:17;;;;;;;11.45;10.27;;;;;;;;;;8310983;28;20009;-60
2023/05/22 02:09:18;;;;;;;12.30;10.27;;;;;;;;;;8309808;28;20349;-60
2023/05/22 02:13:18;;;;;;;11.50;9.98;;;;;;;;;;8308045;28;20025;-60
2023/05/22 02:17:20;;;;;;;10.43;9.30;;;;;;;;;;8309405;28;20040;-61
2023/05/22 02:21:21;;;;;;;13.65;9.65;;;;;;;;;;8309691;28;20652;-61
2023/05/22 02:25:21;;;;;;;11.77;10.57;;;;;;;;;;8313433;28;20084;-60
2023/05/22 02:29:21;;;;;;;10.80;9.70;;;;;;;;;;8306476;28;20037;-61
2023/05/22 02:33:21;;;;;;;14.10;9.93;;;;;;;;;;8306920;28;20814;-61
2023/05/22 02:37:22;;;;;;;15.20;10.43;;;;;;;;;;8310355;28;20036;-61
2023/05/22 02:41:22;;;;;;;13.88;10.60;;;;;;;;;;8307679;28;20504;-61
2023/05/22 02:45:22;;;;;;;11.50;10.18;;;;;;;;;;8308310;28;20032;-60
2023/05/22 02:49:22;;;;;;;12.48;10.40;;;;;;;;;;8307400;28;20033;-60
2023/05/22 02:53:22;;;;;;;12.38;10.50;;;;;;;;;;8307081;28;20104;-60
2023/05/22 02:57:23;;;;;;;12.20;10.93;;;;;;;;;;8307572;28;20033;-61
2023/05/22 03:01:25;;;;;;;13.70;11.70;;;;;;;;;;8310552;28;20044;-61
2023/05/22 03:05:25;;;;;;;13.75;10.95;;;;;;;;;;8310959;28;20107;-61
2023/05/22 03:09:25;;;;;;;13.45;10.88;;;;;;;;;;8298931;28;20068;-60
2023/05/22 03:13:26;;;;;;;12.73;10.70;;;;;;;;;;8302018;28;20030;-60
2023/05/22 03:17:26;;;;;;;12.37;10.93;;;;;;;;;;8301683;28;20037;-61
2023/05/22 03:21:26;;;;;;;12.98;11.52;;;;;;;;;;8303333;28;20020;-60
2023/05/22 03:25:26;;;;;;;22.38;11.40;;;;;;;;;;8302986;28;20034;-60
2023/05/22 03:29:26;;;;;;;13.23;11.50;;;;;;;;;;8299668;28;20025;-60
2023/05/22 03:33:27;;;;;;;13.60;11.37;;;;;;;;;;8299942;28;20284;-60
2023/05/22 03:37:27;;;;;;;15.83;11.73;;;;;;;;;;8303372;28;20345;-60
2023/05/22 03:41:27;;;;;;;13.90;11.43;;;;;;;;;;8303534;28;20025;-60
2023/05/22 03:45:27;;;;;;;14.15;11.07;;;;;;;;;;8300633;28;20049;-60
2023/05/22 03:49:28;;;;;;;15.18;11.40;;;;;;;;;;8299251;28;20120;-61
2023/05/22 03:53:28;;;;;;;16.65;12.02;;;;;;;;;;8301130;28;20073;-60
2023/05/22 03:57:28;;;;;;;17.33;11.02;;;;;;;;;;8301677;28;20021;-61
2023/05/22 04:01:28;;;;;;;15.10;10.80;;;;;;;;;;8298241;28;20080;-60
2023/05/22 04:05:30;;;;;;;13.65;11.52;;;;;;;;;;8299742;28;20025;-60
2023/05/22 04:09:30;;;;;;;12.60;11.23;;;;;;;;;;8299754;28;20115;-61
2023/05/22 04:13:31;;;;;;;11.65;10.45;;;;;;;;;;8301587;28;20291;-60
2023/05/22 04:17:32;;;;;;;12.20;10.98;;;;;;;;;;8295626;28;20141;-60
2023/05/22 04:21:33;;;;;;;13.10;11.40;;;;;;;;;;8315700;28;20044;-60
2023/05/22 04:25:33;;;;;;;16.17;11.82;;;;;;;;;;8299855;28;20017;-60
2023/05/22 04:29:35;;;;;;;13.88;12.48;;;;;;;;;;8300894;28;20086;-61
2023/05/22 04:33:35;;;;;;;15.18;11.20;;;;;;;;;;8299618;28;20029;-60
2023/05/22 04:37:35;;;;;;;15.20;11.93;;;;;;;;;;8300217;28;20028;-60
2023/05/22 04:41:35;;;;;;;13.90;10.85;;;;;;;;;;8300860;28;20036;-60
2023/05/22 04:45:36;;;;;;;15.18;11.75;;;;;;;;;;8298959;28;20909;-60
2023/05/22 04:49:37;;;;;;;15.07;11.37;;;;;;;;;;8300354;28;20107;-60
2023/05/22 04:53:37;;;;;;;13.38;10.82;;;;;;;;;;8297372;28;20079;-60
2023/05/22 04:57:38;;;;;;;12.15;10.85;;;;;;;;;;8296507;28;20732;-60
2023/05/22 05:01:38;;;;;;;14.60;11.00;;;;;;;;;;8298097;28;20099;-60
2023/05/22 05:05:39;;;;;;;15.40;11.13;;;;;;;;;;8298166;28;20029;-60
2023/05/22 05:09:39;;;;;;;13.50;11.03;;;;;;;;;;8296764;28;20095;-60
2023/05/22 05:13:40;;;;;;;12.07;10.77;;;;;;;;;;8296585;28;20021;-60
2023/05/22 05:17:40;;;;;;;12.90;10.35;;;;;;;;;;8296222;28;20637;-61
2023/05/22 05:21:40;;;;;;;11.68;10.45;;;;;;;;;;8298029;28;20114;-61
2023/05/22 05:25:41;;;;;;;11.65;10.45;;;;;;;;;;8301209;28;20237;-61
2023/05/22 05:29:41;;;;;;;11.60;10.40;;;;;;;;;;8298531;28;20147;-61
2023/05/22 05:33:41;;;;;;;11.03;9.87;;;;;;;;;;8299551;28;20049;-61
2023/05/22 05:37:42;;;;;;;12.10;10.15;;;;;;;;;;8298702;28;20272;-61
2023/05/22 05:41:42;;;;;;;11.18;9.68;;;;;;;;;;8299265;28;20032;-61
2023/05/22 05:45:42;;;;;;;10.55;9.48;;;;;;;;;;8293894;28;20026;-60
2023/05/22 05:49:42;;;;;;;12.93;10.07;;;;;;;;;;8295415;28;20102;-61
2023/05/22 05:53:43;;;;;;;11.20;9.48;;;;;;;;;;8296285;28;20028;-61
2023/05/22 05:57:43;;;;;;;10.80;9.40;;;;;;;;;;8294077;28;20045;-61
2023/05/22 06:01:44;;;;;;;11.02;9.80;;;;;;;;;;8297481;28;20827;-61
2023/05/22 06:05:45;;;;;;;10.80;8.95;;;;;;;;;;8297049;28;20080;-61
2023/05/22 06:09:45;;;;;;;11.65;9.57;;;;;;;;;;8298358;28;20466;-62
2023/05/22 06:13:45;;;;;;;11.70;9.03;;;;;;;;;;8292960;28;20695;-61
2023/05/22 06:17:45;;;;;;;9.82;8.80;;;;;;;;;;8293534;28;20065;-61
2023/05/22 06:21:45;;;;;;;12.88;9.07;;;;;;;;;;8300575;28;20034;-61
2023/05/22 06:25:46;;;;;;;11.05;8.88;;;;;;;;;;8297897;28;20025;-62
2023/05/22 06:29:46;;;;;;;9.20;8.30;;;;;;;;;;8292640;28;20049;-61
2023/05/22 06:33:46;;;;;;;9.20;8.30;;;;;;;;;;8296245;28;20049;-61
2023/05/22 06:37:46;;;;;;;9.10;8.15;;;;;;;;;;8296251;28;20025;-62
2023/05/22 06:41:46;;;;;;;10.10;8.13;;;;;;;;;;8297529;28;20401;-61
2023/05/22 06:45:46;;;;;;;8.95;8.13;;;;;;;;;;8301791;28;20386;-61
2023/05/22 06:49:47;;;;;;;9.48;8.15;;;;;;;;;;8300874;28;20033;-61
2023/05/22 06:53:47;;;;;;;8.75;7.85;;;;;;;;;;8302935;28;20036;-61
2023/05/22 06:57:47;;;;;;;9.00;8.20;;;;;;;;;;8303390;28;20466;-61
2023/05/22 07:01:47;;;;;;;9.30;8.23;;;;;;;;;;8302154;28;20581;-61
2023/05/22 07:05:48;;;;;;;9.73;7.90;;;;;;;;;;8299884;28;20834;-61
2023/05/22 07:09:48;;;;;;;9.90;7.93;;;;;;;;;;8300553;28;20252;-61
2023/05/22 07:13:48;;;;;;;10.10;7.97;;;;;;;;;;8302713;28;20033;-61
2023/05/22 07:17:48;;;;;;;9.15;7.70;;;;;;;;;;8299449;28;20029;-61
2023/05/22 07:21:48;;;;;;;9.07;8.18;;;;;;;;;;8301462;28;20071;-63
2023/05/22 07:25:48;;;;;;;8.35;7.65;;;;;;;;;;8301094;28;20152;-61
2023/05/22 07:29:49;;;;;;;9.18;8.10;;;;;;;;;;8300302;28;20672;-61
2023/05/22 07:33:49;;;;;;;8.63;7.83;;;;;;;;;;8304011;28;20400;-61
2023/05/22 07:37:49;;;;;;;9.13;7.95;;;;;;;;;;8300979;28;20025;-62
2023/05/22 07:41:49;;;;;;;9.10;7.85;;;;;;;;;;8302236;28;20300;-62
2023/05/22 07:45:50;;;;;;;8.65;7.80;;;;;;;;;;8300769;28;20316;-61
2023/05/22 07:49:50;;;;;;;11.40;7.85;;;;;;;;;;8297459;28;20025;-61
2023/05/22 07:53:50;;;;;;;10.63;8.13;;;;;;;;;;8300785;28;20036;-61
2023/05/22 07:57:51;;;;;;;8.20;7.50;;;;;;;;;;8297937;28;20049;-61
2023/05/22 08:01:51;;;;;;;7.90;7.10;;;;;;;;;;8300415;28;20115;-61
2023/05/22 08:05:52;;;;;;;9.90;7.47;;;;;;;;;;8294695;28;20083;-61
2023/05/22 08:09:52;;;;;;;9.32;7.35;;;;;;;;;;8298491;28;20112;-61
2023/05/22 08:13:52;;;;;;;9.80;7.63;;;;;;;;;;8301534;28;20457;-61
2023/05/22 08:17:52;;;;;;;8.48;7.13;;;;;;;;;;8297914;28;20140;-62
2023/05/22 08:21:56;;;;;;;8.05;7.25;;;;;;;;;;8297070;28;20560;-62
2023/05/22 08:25:57;;;;;;;7.47;6.78;;;;;;;;;;8300656;28;20033;-62
2023/05/22 08:29:57;;;;;;;7.75;6.72;;;;;;;;;;8299078;28;20106;-62
2023/05/22 08:34:01;;;;;;;8.80;7.68;;;;;;;;;;8299842;28;20493;-62
2023/05/22 08:38:01;;;;;;;7.65;6.90;;;;;;;;;;8297858;28;20028;-62
2023/05/22 08:42:02;;;;;;;7.07;6.37;;;;;;;;;;8298121;28;20025;-62
2023/05/22 08:46:03;;;;;;;9.83;6.70;;;;;;;;;;8299829;28;20135;-62
2023/05/22 08:50:03;;;;;;;9.07;6.83;;;;;;;;;;8299625;28;20521;-62
2023/05/22 08:54:07;;;;;;;9.63;6.27;;;;;;;;;;8299207;28;20029;-62
2023/05/22 08:58:08;;;;;;;7.53;6.70;;;;;;;;;;8296843;28;20135;-62
2023/05/22 09:02:08;;;;;;;7.67;6.73;;;;;;;;;;8300190;28;20026;-62
2023/05/22 09:06:10;;;;;;;7.90;6.53;;;;;;;;;;8298164;28;20044;-62
2023/05/22 09:10:10;;;;;;;7.82;6.88;;;;;;;;;;8299501;28;20064;-62
2023/05/22 09:14:10;;;;;;;7.47;6.40;;;;;;;;;;8313400;28;20495;-62
2023/05/22 09:18:10;;;;;;;7.18;6.57;;;;;;;;;;8297321;28;20107;-62
2023/05/22 09:22:11;;;;;;;7.32;6.40;;;;;;;;;;8298755;28;20078;-62
2023/05/22 09:26:11;;;;;;;7.88;6.63;;;;;;;;;;8295975;28;20029;-62
2023/05/22 09:30:15;;;;;;;7.65;6.95;;;;;;;;;;8296545;28;20480;-62
2023/05/22 09:34:16;;;;;;;9.43;6.80;;;;;;;;;;8299397;28;20028;-62
2023/05/22 09:38:16;;;;;;;9.70;7.07;;;;;;;;;;8297061;28;20021;-62
2023/05/22 09:42:17;;;;;;;7.65;6.95;;;;;;;;;;8299041;28;20032;-62
2023/05/22 09:46:17;;;;;;;7.37;6.77;;;;;;;;;;8296857;28;20094;-62
2023/05/22 09:50:17;;;;;;;10.67;7.10;;;;;;;;;;8295317;28;20414;-61
2023/05/22 09:54:18;;;;;;;9.20;6.93;;;;;;;;;;8297014;28;20376;-62
2023/05/22 09:58:19;;;;;;;7.32;6.60;;;;;;;;;;8299685;28;20021;-62
2023/05/22 10:02:21;;;;;;;7.32;6.57;;;;;;;;;;8299082;28;20107;-62
2023/05/22 10:06:22;;;;;;;7.50;6.70;;;;;;;;;;8296232;28;20072;-61
2023/05/22 10:10:23;;;;;;;7.85;6.90;;;;;;;;;;8296425;28;20092;-61
2023/05/22 10:14:24;;;;;;;7.40;6.70;;;;;;;;;;8295823;28;20325;-61
2023/05/22 10:18:25;;;;;;;7.50;6.80;;;;;;;;;;8303689;28;20034;-62
2023/05/22 10:22:26;;;;;;;7.75;6.90;;;;;;;;;;8299487;28;20033;-62
2023/05/22 10:26:27;;;;;;;8.07;6.80;;;;;;;;;;8285250;28;20276;-62
2023/05/22 10:30:28;;;;;;;7.30;6.68;;;;;;;;;;8290132;28;20253;-62
2023/05/22 10:34:47;;;;;;;7.72;6.75;;;;;;;;;;8289933;28;20162;-62
2023/05/22 10:39:03;;;;;;;8.02;7.22;;;;;;;;;;8298320;28;20025;-62
2023/05/22 10:43:03;;;;;;;7.53;6.88;;;;;;;;;;8292867;28;20036;-62
2023/05/22 10:47:12;;;;;;;9.30;7.20;;;;;;;;;;8293128;28;20602;-62
2023/05/22 10:51:13;;;;;;;17.08;7.32;;;;;;;;;;8293900;28;20025;-62
2023/05/22 10:55:13;;;;;;;8.73;6.73;;;;;;;;;;8297233;28;20382;-62
2023/05/22 10:59:14;;;;;;;7.60;6.78;;;;;;;;;;8291339;28;20544;-62
2023/05/22 11:03:14;;;;;;;7.13;6.50;;;;;;;;;;8292768;28;20029;-62
2023/05/22 11:07:14;;;;;;;6.33;5.73;;;;;;;;;;8293123;28;20680;-63
2023/05/22 11:11:15;;;;;;;6.90;6.30;;;;;;;;;;8293643;28;20040;-62
2023/05/22 11:15:15;;;;;;;9.37;6.70;;;;;;;;;;8293366;28;20025;-62
2023/05/22 11:19:15;;;;;;;8.10;6.63;;;;;;;;;;8293008;28;20481;-62
2023/05/22 11:23:16;;;;;;;7.83;6.90;;;;;;;;;;8294056;28;20032;-62
2023/05/22 11:27:17;;;;;;;6.80;6.20;;;;;;;;;;8293057;28;20098;-62
2023/05/22 11:31:17;;;;;;;6.75;6.15;;;;;;;;;;8289848;28;20384;-62
2023/05/22 11:35:18;;;;;;;7.13;6.40;;;;;;;;;;8291108;28;20128;-62
2023/05/22 11:39:18;;;;;;;7.60;6.40;;;;;;;;;;8290710;28;20483;-63
2023/05/22 11:43:28;;;;;;;8.43;6.55;;;;;;;;;;8292172;28;20064;-62
2023/05/22 11:47:29;;;;;;;8.75;6.30;;;;;;;;;;8290958;28;20873;-62
2023/05/22 11:51:30;;;;;;;8.93;7.10;;;;;;;;;;8292024;28;20021;-63
2023/05/22 11:55:31;;;;;;;10.80;6.87;;;;;;;;;;8295852;28;20045;-62
2023/05/22 11:59:32;;;;;;;8.82;6.55;;;;;;;;;;8291572;28;20834;-62
2023/05/22 12:03:32;;;;;;;9.03;6.60;;;;;;;;;;8294485;28;20136;-62
2023/05/22 12:07:32;;;;;;;11.13;6.83;;;;;;;;;;8294797;28;20141;-62
2023/05/22 12:11:36;;;;;;;9.80;6.93;;;;;;;;;;8293995;28;20112;-62
2023/05/22 12:15:36;;;;;;;9.30;6.57;;;;;;;;;;8293192;28;20838;-62
2023/05/22 12:19:38;;;;;;;7.72;6.93;;;;;;;;;;8293863;28;20060;-62
2023/05/22 12:23:46;;;;;;;8.15;7.35;;;;;;;;;;8296154;28;20144;-62
2023/05/22 12:27:46;;;;;;;8.00;7.20;;;;;;;;;;8290334;28;20610;-62
2023/05/22 12:31:46;;;;;;;9.25;6.85;;;;;;;;;;8294447;28;20034;-62
2023/05/22 12:35:49;;;;;;;7.53;6.83;;;;;;;;;;8293327;28;20132;-62
2023/05/22 12:39:56;;;;;;;8.02;7.22;;;;;;;;;;8288719;28;20020;-62
2023/05/22 12:43:56;;;;;;;8.05;6.68;;;;;;;;;;8296071;28;20033;-62
2023/05/22 12:47:56;;;;;;;7.72;6.95;;;;;;;;;;8292423;28;20048;-62
2023/05/22 12:51:56;;;;;;;8.70;7.82;;;;;;;;;;8285864;28;20089;-62
2023/05/22 12:55:57;;;;;;;9.97;6.73;;;;;;;;;;8297974;28;20144;-62
2023/05/22 12:59:57;;;;;;;8.77;7.03;;;;;;;;;;8295938;28;21024;-62
2023/05/22 13:03:57;;;;;;;8.13;7.13;;;;;;;;;;8296764;28;20410;-62
2023/05/22 13:07:57;;;;;;;8.63;7.40;;;;;;;;;;8295698;28;20017;-62
2023/05/22 13:11:58;;;;;;;9.03;8.13;;;;;;;;;;8296731;28;20021;-62
2023/05/22 13:15:59;;;;;;;10.27;8.88;;;;;;;;;;8292576;28;20049;-62
2023/05/22 13:19:59;;;;;;;9.55;8.65;;;;;;;;;;8296355;28;20021;-61
2023/05/22 13:24:00;;;;;;;10.55;9.15;;;;;;;;;;8296659;28;20017;-61
2023/05/22 13:28:00;;;;;;;10.07;8.88;;;;;;;;;;8295238;28;20021;-62
2023/05/22 13:32:00;;;;;;;9.50;8.50;;;;;;;;;;8295016;28;20151;-62
2023/05/22 13:36:01;;;;;;;8.38;7.57;;;;;;;;;;8296958;28;20052;-61
2023/05/22 13:40:05;;;;;;;7.75;6.95;;;;;;;;;;8293181;28;20028;-61
2023/05/22 13:44:05;;;;;;;13.00;7.05;;;;;;;;;;8294249;28;20025;-61
2023/05/22 13:48:05;;;;;;;7.55;6.80;;;;;;;;;;8289457;28;23213;-61
2023/05/22 13:52:05;;;;;;;8.00;6.93;;;;;;;;;;8292850;28;20560;-62
2023/05/22 13:56:06;;;;;;;7.88;7.07;;;;;;;;;;8295999;28;20060;-61
2023/05/22 14:00:08;;;;;;;8.00;6.53;;;;;;;;;;8291511;28;20021;-62
2023/05/22 14:04:12;;;;;;;8.45;7.47;;;;;;;;;;8292855;28;20021;-62
2023/05/22 14:08:12;;;;;;;7.25;6.47;;;;;;;;;;8295058;28;20120;-62
2023/05/22 14:12:12;;;;;;;9.00;6.80;;;;;;;;;;8297977;28;20152;-62
2023/05/22 14:16:12;;;;;;;9.13;7.18;;;;;;;;;;8296285;28;20652;-62
2023/05/22 14:20:13;;;;;;;7.53;6.35;;;;;;;;;;8292228;28;21005;-62
2023/05/22 14:24:13;;;;;;;9.35;6.38;;;;;;;;;;8295788;28;20025;-62
2023/05/22 14:28:13;;;;;;;6.50;5.90;;;;;;;;;;8293137;28;20026;-62
2023/05/22 14:32:13;;;;;;;10.63;5.13;;;;;;;;;;8297462;28;20634;-61
2023/05/22 14:36:16;;;;;;;7.20;5.90;;;;;;;;;;8294205;28;20357;-62
2023/05/22 14:40:16;;;;;;;6.97;6.00;;;;;;;;;;8292892;28;20121;-62
2023/05/22 14:44:18;;;;;;;7.95;6.30;;;;;;;;;;8299607;28;20028;-61
2023/05/22 14:48:18;;;;;;;7.47;6.20;;;;;;;;;;8297528;28;20049;-61
2023/05/22 14:52:18;;;;;;;6.80;5.95;;;;;;;;;;8296129;28;20044;-61
2023/05/22 14:56:18;;;;;;;6.07;5.57;;;;;;;;;;8295456;28;20060;-62
2023/05/22 15:00:19;;;;;;;9.63;6.40;;;;;;;;;;8297416;28;20025;-61
2023/05/22 15:04:19;;;;;;;6.47;5.85;;;;;;;;;;8302884;28;20113;-61
2023/05/22 15:08:20;;;;;;;6.97;6.27;;;;;;;;;;8301617;28;20033;-61
2023/05/22 15:12:20;;;;;;;7.13;6.40;;;;;;;;;;8300013;28;20036;-61
2023/05/22 15:16:21;;;;;;;8.32;6.68;;;;;;;;;;8304369;28;20570;-62
2023/05/22 15:20:21;;;;;;;7.43;6.72;;;;;;;;;;8301769;28;20191;-61
2023/05/22 15:24:21;;;;;;;7.90;6.65;;;;;;;;;;8304989;28;20036;-61
2023/05/22 15:28:22;;;;;;;6.67;4.97;;;;;;;;;;8302114;28;20036;-61
2023/05/22 15:32:22;;;;;;;4.68;4.20;;;;;;;;;;8300770;28;20384;-61
2023/05/22 15:36:22;;;;;;;6.03;4.13;;;;;;;;;;8303404;28;20060;-61
2023/05/22 15:40:22;;;;;;;3.88;3.55;;;;;;;;;;8298094;28;20035;-62
2023/05/22 15:44:23;;;;;;;4.40;4.00;;;;;;;;;;8301254;28;20033;-61
2023/05/22 15:48:23;;;;;;;7.20;4.33;;;;;;;;;;8299014;28;20041;-61
2023/05/22 15:52:24;;;;;;;6.90;4.65;;;;;;;;;;8299921;28;20381;-61
2023/05/22 15:56:24;;;;;;;6.77;5.73;;;;;;;;;;8298133;28;20044;-61
2023/05/22 16:00:26;;;;;;;9.43;7.93;;;;;;;;;;8298483;28;20303;-61
2023/05/22 16:04:26;;;;;;;9.68;7.70;;;;;;;;;;8300113;28;20064;-61
2023/05/22 16:08:26;;;;;;;9.52;6.07;;;;;;;;;;8298976;28;20026;-61
2023/05/22 16:12:26;;;;;;;6.90;6.30;;;;;;;;;;8302032;28;20588;-61
2023/05/22 16:16:26;;;;;;;9.15;6.07;;;;;;;;;;8299063;28;20362;-61
2023/05/22 16:20:27;;;;;;;9.15;5.70;;;;;;;;;;8298836;28;20044;-61
2023/05/22 16:24:27;;;;;;;9.10;7.30;;;;;;;;;;8298191;28;20025;-60
2023/05/22 16:28:27;;;;;;;8.38;6.50;;;;;;;;;;8298818;28;20957;-61
2023/05/22 16:32:28;;;;;;;8.65;6.90;;;;;;;;;;8297421;28;20057;-61
2023/05/22 16:36:28;;;;;;;8.05;6.93;;;;;;;;;;8298537;28;20036;-61
2023/05/22 16:40:28;;;;;;;7.70;6.13;;;;;;;;;;8298633;28;20027;-61
2023/05/22 16:44:29;;;;;;;7.03;6.33;;;;;;;;;;8294905;28;20029;-61
2023/05/22 16:48:29;;;;;;;8.63;6.73;;;;;;;;;;8295523;28;20823;-61
2023/05/22 16:52:29;;;;;;;7.07;6.17;;;;;;;;;;8298004;28;20271;-61
2023/05/22 16:56:31;;;;;;;7.00;6.30;;;;;;;;;;8299620;28;20033;-61
2023/05/22 17:00:31;;;;;;;7.60;5.93;;;;;;;;;;8314185;28;20033;-61
2023/05/22 17:04:32;;;;;;;9.77;5.93;;;;;;;;;;8294689;28;20047;-61
2023/05/22 17:08:32;;;;;;;9.95;6.25;;;;;;;;;;8297635;28;20059;-61
2023/05/22 17:12:32;;;;;;;6.97;5.85;;;;;;;;;;8296872;28;20733;-61
2023/05/22 17:16:33;;;;;;;6.40;5.72;;;;;;;;;;8298844;28;20149;-61
2023/05/22 17:20:33;;;;;;;6.53;5.60;;;;;;;;;;8296384;28;20556;-61
2023/05/22 17:24:33;;;;;;;8.02;5.47;;;;;;;;;;8295735;28;20021;-60
2023/05/22 17:28:34;;;;;;;6.32;5.47;;;;;;;;;;8292246;28;20044;-61
2023/05/22 17:32:34;;;;;;;7.55;5.82;;;;;;;;;;8295441;28;20037;-61
2023/05/22 17:36:35;;;;;;;8.65;7.13;;;;;;;;;;8297512;28;20028;-61
2023/05/22 17:40:35;;;;;;;10.18;7.20;;;;;;;;;;8294402;28;20024;-61
2023/05/22 17:44:36;;;;;;;9.35;7.80;;;;;;;;;;8297643;28;20029;-61
2023/05/22 17:48:36;;;;;;;10.18;8.45;;;;;;;;;;8296252;28;20041;-61
2023/05/22 17:52:36;;;;;;;9.07;7.85;;;;;;;;;;8295427;28;20140;-61
2023/05/22 17:56:36;;;;;;;10.60;8.00;;;;;;;;;;8296446;28;20932;-61
2023/05/22 18:00:36;;;;;;;10.87;8.03;;;;;;;;;;8293036;28;20044;-61
2023/05/22 18:04:37;;;;;;;8.98;7.70;;;;;;;;;;8292408;28;20468;-61
2023/05/22 18:08:38;;;;;;;9.77;8.17;;;;;;;;;;8292972;28;20036;-61
2023/05/22 18:12:39;;;;;;;10.95;8.15;;;;;;;;;;8298113;28;20102;-61
2023/05/22 18:16:39;;;;;;;8.70;7.80;;;;;;;;;;8293337;28;20037;-61
2023/05/22 18:20:39;;;;;;;11.60;8.43;;;;;;;;;;8291667;28;20068;-61
2023/05/22 18:24:39;;;;;;;8.67;7.80;;;;;;;;;;8295424;28;20124;-61
2023/05/22 18:28:41;;;;;;;10.43;8.18;;;;;;;;;;8294322;28;20448;-61
2023/05/22 18:32:41;;;;;;;9.07;8.00;;;;;;;;;;8293634;28;20036;-61
2023/05/22 18:36:41;;;;;;;9.77;8.77;;;;;;;;;;8295207;28;20025;-61
2023/05/22 18:40:41;;;;;;;13.57;8.88;;;;;;;;;;8297688;28;20025;-61
2023/05/22 18:44:42;;;;;;;11.02;9.73;;;;;;;;;;8299862;28;20031;-61
2023/05/22 18:48:42;;;;;;;10.75;9.65;;;;;;;;;;8298431;28;20041;-61
2023/05/22 18:52:42;;;;;;;10.70;9.55;;;;;;;;;;8300663;28;20572;-62
2023/05/22 18:56:42;;;;;;;12.32;10.95;;;;;;;;;;8297979;28;20305;-61
2023/05/22 19:00:44;;;;;;;14.32;10.43;;;;;;;;;;8297113;28;20033;-61
2023/05/22 19:04:44;;;;;;;14.02;10.38;;;;;;;;;;8301940;28;20025;-61
2023/05/22 19:08:44;;;;;;;12.30;10.80;;;;;;;;;;8297947;28;20024;-61
2023/05/22 19:12:44;;;;;;;12.83;10.90;;;;;;;;;;8302277;28;20099;-61
2023/05/22 19:16:45;;;;;;;15.95;10.38;;;;;;;;;;8299238;28;20728;-61
2023/05/22 19:20:45;;;;;;;14.98;11.68;;;;;;;;;;8294409;28;20144;-60
2023/05/22 19:24:45;;;;;;;11.90;10.68;;;;;;;;;;8247335;28;20118;-61
2023/05/22 19:28:46;;;;;;;11.47;9.97;;;;;;;;;;8273282;28;20681;-60
2023/05/22 19:32:48;;;;;;;12.77;10.57;;;;;;;;;;8297072;28;20294;-60
2023/05/22 19:36:50;;;;;;;13.37;11.40;;;;;;;;;;8295389;28;20507;-61
2023/05/22 19:40:50;;;;;;;13.40;11.38;;;;;;;;;;8287374;28;20252;-61
2023/05/22 19:44:50;;;;;;;14.07;11.43;;;;;;;;;;8290869;28;20635;-61
2023/05/22 19:48:51;;;;;;;13.30;11.27;;;;;;;;;;8282014;28;20045;-61
2023/05/22 19:52:51;;;;;;;13.82;11.93;;;;;;;;;;8288418;28;20391;-61
2023/05/22 19:56:51;;;;;;;12.93;11.57;;;;;;;;;;8288672;28;20169;-61
2023/05/22 20:00:51;;;;;;;13.27;11.73;;;;;;;;;;8289264;28;20158;-61
2023/05/22 20:04:53;;;;;;;14.27;12.48;;;;;;;;;;8291196;28;20025;-61
2023/05/22 20:08:53;;;;;;;16.52;12.85;;;;;;;;;;8290142;28;20033;-61
2023/05/22 20:12:54;;;;;;;18.30;13.80;;;;;;;;;;8291175;28;20040;-61
2023/05/22 20:16:54;;;;;;;17.37;13.17;;;;;;;;;;8290327;28;20140;-62
2023/05/22 20:20:54;;;;;;;18.83;14.68;;;;;;;;;;8286674;28;20284;-61
2023/05/22 20:24:54;;;;;;;19.05;13.82;;;;;;;;;;8290489;28;20021;-61
2023/05/22 20:28:55;;;;;;;22.07;16.40;;;;;;;;;;8288356;28;20020;-61
2023/05/22 20:32:55;;;;;;;25.55;17.40;;;;;;;;;;8289714;28;20357;-61
2023/05/22 20:36:57;;;;;;;27.13;17.63;;;;;;;;;;8289490;28;20033;-61
2023/05/22 20:40:58;;;;;;;30.17;19.65;;;;;;;;;;8290710;28;20025;-61
2023/05/22 20:44:58;;;;;;;35.42;21.30;;;;;;;;;;8289949;28;20029;-61
2023/05/22 20:48:58;;;;;;;34.05;21.70;;;;;;;;;;8290304;28;20037;-61
2023/05/22 20:52:59;;;;;;;37.50;22.60;;;;;;;;;;8297506;28;20056;-61
2023/05/22 20:57:00;;;;;;;40.13;25.98;;;;;;;;;;8291065;28;20029;-61
2023/05/22 21:01:01;;;;;;;43.83;26.90;;;;;;;;;;8291030;28;20464;-61
2023/05/22 21:05:03;;;;;;;44.20;27.83;;;;;;;;;;8292035;28;20053;-61
2023/05/22 21:09:03;;;;;;;43.47;28.77;;;;;;;;;;8290569;28;20527;-61
2023/05/22 21:13:03;;;;;;;46.00;28.90;;;;;;;;;;8294709;28;20337;-61
2023/05/22 21:17:03;;;;;;;46.67;29.65;;;;;;;;;;8291327;28;20433;-61
2023/05/22 21:21:03;;;;;;;44.40;28.85;;;;;;;;;;8295488;28;20605;-61
2023/05/22 21:25:04;;;;;;;43.95;29.95;;;;;;;;;;8293243;28;20048;-61
2023/05/22 21:29:04;;;;;;;50.50;31.67;;;;;;;;;;8290086;28;20108;-61
2023/05/22 21:33:04;;;;;;;45.27;31.37;;;;;;;;;;8291112;28;20095;-61
2023/05/22 21:37:05;;;;;;;48.67;31.03;;;;;;;;;;8292837;28;20037;-61
2023/05/22 21:41:05;;;;;;;51.58;33.70;;;;;;;;;;8296988;28;20271;-61
2023/05/22 21:45:06;;;;;;;49.13;32.75;;;;;;;;;;8292142;28;20037;-61
2023/05/22 21:49:08;;;;;;;49.15;33.05;;;;;;;;;;8292496;28;20747;-61
2023/05/22 21:53:08;;;;;;;48.80;32.97;;;;;;;;;;8290197;28;20139;-61
2023/05/22 21:57:08;;;;;;;45.73;31.50;;;;;;;;;;8297448;28;20095;-61
2023/05/22 22:01:09;;;;;;;45.03;32.67;;;;;;;;;;8297733;28;20032;-61
2023/05/22 22:05:12;;;;;;;42.58;30.35;;;;;;;;;;8297332;28;20090;-61
2023/05/22 22:09:12;;;;;;;44.08;29.67;;;;;;;;;;8288585;28;20547;-61
2023/05/22 22:13:12;;;;;;;44.40;30.60;;;;;;;;;;8301446;28;20033;-61
2023/05/22 22:17:15;;;;;;;41.40;30.52;;;;;;;;;;8277245;28;21011;-61
2023/05/22 22:21:15;;;;;;;47.47;30.60;;;;;;;;;;8301374;28;20380;-61
2023/05/22 22:25:16;;;;;;;46.22;31.23;;;;;;;;;;8298296;28;20057;-61
2023/05/22 22:29:16;;;;;;;49.05;31.90;;;;;;;;;;8298493;28;20017;-61
2023/05/22 22:33:16;;;;;;;44.28;31.05;;;;;;;;;;8296731;28;20361;-61
2023/05/22 22:37:17;;;;;;;42.85;29.55;;;;;;;;;;8298275;28;20098;-61
2023/05/22 22:41:17;;;;;;;40.28;28.42;;;;;;;;;;8297195;28;20036;-61
2023/05/22 22:45:18;;;;;;;40.25;28.90;;;;;;;;;;8302358;28;20021;-61
2023/05/22 22:49:20;;;;;;;49.10;29.75;;;;;;;;;;8303926;28;20056;-61
2023/05/22 22:53:20;;;;;;;45.35;29.25;;;;;;;;;;8302893;28;20017;-61
2023/05/22 22:57:20;;;;;;;38.90;28.10;;;;;;;;;;8304689;28;20930;-61
2023/05/22 23:01:21;;;;;;;43.85;26.98;;;;;;;;;;8302193;28;20482;-61
2023/05/22 23:05:21;;;;;;;38.63;26.20;;;;;;;;;;8303250;28;20108;-61
2023/05/22 23:09:21;;;;;;;32.55;25.38;;;;;;;;;;8302328;28;20057;-61
2023/05/22 23:13:22;;;;;;;32.28;23.70;;;;;;;;;;8303402;28;20037;-61
2023/05/22 23:17:22;;;;;;;37.85;25.52;;;;;;;;;;8302832;28;20048;-61
2023/05/22 23:21:22;;;;;;;35.60;23.48;;;;;;;;;;8304868;28;20044;-61
2023/05/22 23:25:22;;;;;;;30.43;22.60;;;;;;;;;;8302355;28;20036;-61
2023/05/22 23:29:22;;;;;;;31.58;23.95;;;;;;;;;;8300821;28;20079;-61
2023/05/22 23:33:22;;;;;;;29.65;21.55;;;;;;;;;;8301280;28;20049;-61
2023/05/22 23:37:23;;;;;;;28.92;22.15;;;;;;;;;;8304562;28;20031;-61
2023/05/22 23:41:23;;;;;;;29.27;20.63;;;;;;;;;;8302862;28;20017;-61
2023/05/22 23:45:23;;;;;;;27.02;20.98;;;;;;;;;;8305885;28;20049;-61